Time;durP1;ratioP1;P1;durP2;ratioP2;P2;SDS_P1;SDS_P2;PMS_P1;PMS_P2;Temp;Humidity;BMP_temperature;BMP_pressure;BME280_temperature;BME280_humidity;BME280_pressure;Samples;Min_cycle;Max_cycle;Signal;HPM_P1;HPM_P2
2022/11/20 00:01:24;;;;;;;14.83;12.60;;;4.10;99.90;;;;;;5017973;28;20198;-67
2022/11/20 00:03:51;;;;;;;14.80;13.40;;;4.10;99.90;;;;;;5032099;28;20182;-66
2022/11/20 00:06:18;;;;;;;14.20;13.03;;;4.10;99.90;;;;;;5019925;28;20208;-67
2022/11/20 00:08:45;;;;;;;12.93;11.83;;;4.00;99.90;;;;;;5011731;28;20200;-67
2022/11/20 00:11:19;;;;;;;13.63;12.20;;;4.00;99.90;;;;;;5020888;28;20578;-67
2022/11/20 00:13:46;;;;;;;13.97;12.87;;;4.00;99.90;;;;;;5031440;28;20544;-67
2022/11/20 00:16:14;;;;;;;14.20;12.80;;;4.10;99.90;;;;;;5021779;28;20603;-67
2022/11/20 00:18:40;;;;;;;15.87;12.47;;;4.00;99.90;;;;;;5011648;28;20191;-67
2022/11/20 00:21:10;;;;;;;13.20;11.90;;;4.00;99.90;;;;;;5018687;28;20176;-67
2022/11/20 00:23:35;;;;;;;13.63;12.30;;;4.00;99.90;;;;;;5031505;28;20168;-67
2022/11/20 00:26:06;;;;;;;14.53;11.50;;;4.10;99.90;;;;;;5024481;28;20200;-66
2022/11/20 00:28:32;;;;;;;13.30;11.67;;;4.10;99.90;;;;;;5011627;28;20169;-67
2022/11/20 00:31:09;;;;;;;13.33;11.60;;;4.10;99.90;;;;;;5016077;28;20229;-67
2022/11/20 00:33:35;;;;;;;13.70;12.50;;;4.10;99.90;;;;;;5031370;28;20250;-67
2022/11/20 00:36:06;;;;;;;14.13;12.70;;;4.10;99.90;;;;;;5025854;28;20716;-67
2022/11/20 00:38:32;;;;;;;14.03;12.67;;;4.00;99.90;;;;;;5011652;28;20550;-67
2022/11/20 00:40:59;;;;;;;15.17;13.63;;;4.00;99.90;;;;;;5014742;28;20191;-67
2022/11/20 00:43:26;;;;;;;15.70;12.10;;;4.00;99.90;;;;;;5031339;28;20796;-67
2022/11/20 00:45:57;;;;;;;13.67;12.23;;;4.10;99.90;;;;;;5030771;28;20200;-67
2022/11/20 00:48:23;;;;;;;14.23;13.03;;;4.10;99.90;;;;;;5031178;28;20233;-67
2022/11/20 00:50:48;;;;;;;14.53;11.70;;;4.10;99.90;;;;;;5029417;28;20704;-67
2022/11/20 00:53:14;;;;;;;15.03;12.63;;;4.10;99.90;;;;;;5011367;28;20177;-67
2022/11/20 00:55:39;;;;;;;13.40;10.70;;;4.10;99.90;;;;;;5011493;28;20275;-67
2022/11/20 00:58:05;;;;;;;13.80;12.37;;;4.20;99.90;;;;;;5032779;28;20191;-67
2022/11/20 01:00:31;;;;;;;15.90;11.37;;;4.10;99.90;;;;;;5034428;28;20277;-67
2022/11/20 01:02:56;;;;;;;12.80;11.50;;;4.10;99.90;;;;;;5016986;28;20184;-67
2022/11/20 01:05:22;;;;;;;13.40;12.03;;;4.20;99.90;;;;;;5014639;28;20195;-67
2022/11/20 01:07:47;;;;;;;11.60;10.33;;;4.20;99.90;;;;;;5029667;28;20203;-67
2022/11/20 01:10:13;;;;;;;12.03;10.57;;;4.20;99.90;;;;;;5034113;28;20179;-67
2022/11/20 01:12:38;;;;;;;13.53;12.17;;;4.10;99.90;;;;;;5020622;28;20180;-67
2022/11/20 01:15:04;;;;;;;19.13;12.80;;;4.00;99.90;;;;;;5039211;23;20263;-69
2022/11/20 01:17:32;;;;;;;13.50;12.17;;;4.00;99.90;;;;;;5052338;28;20609;-67
2022/11/20 01:19:57;;;;;;;16.00;14.60;;;4.00;99.90;;;;;;5052688;28;20182;-67
2022/11/20 01:22:23;;;;;;;12.20;11.00;;;4.10;99.90;;;;;;5052578;28;20182;-66
2022/11/20 01:24:48;;;;;;;14.67;13.17;;;4.00;99.90;;;;;;5053758;28;20171;-68
2022/11/20 01:27:14;;;;;;;14.97;13.43;;;4.00;99.90;;;;;;5033745;28;20211;-66
2022/11/20 01:29:39;;;;;;;13.90;12.47;;;4.00;99.90;;;;;;5033867;28;20182;-67
2022/11/20 01:32:05;;;;;;;13.80;12.40;;;4.00;99.90;;;;;;5032268;28;20171;-68
2022/11/20 01:34:31;;;;;;;12.93;12.00;;;4.10;99.90;;;;;;5033925;28;20213;-67
2022/11/20 01:36:56;;;;;;;15.63;11.73;;;4.10;99.90;;;;;;5033522;28;20206;-67
2022/11/20 01:39:25;;;;;;;12.67;11.70;;;4.10;99.90;;;;;;5032489;28;20190;-67
2022/11/20 01:44:56;;;;;;;14.23;13.07;;;4.00;99.90;;;;;;5010651;28;20187;-66
2022/11/20 01:47:36;;;;;;;15.23;13.17;;;4.00;99.90;;;;;;5033509;28;20203;-67
2022/11/20 01:50:16;;;;;;;11.87;10.90;;;4.00;99.90;;;;;;5033257;28;20202;-67
2022/11/20 01:52:51;;;;;;;12.97;11.73;;;4.00;99.90;;;;;;5033383;28;20594;-67
2022/11/20 01:55:25;;;;;;;13.50;12.13;;;4.00;99.90;;;;;;5033447;28;20690;-66
2022/11/20 01:57:51;;;;;;;13.83;12.53;;;4.00;99.90;;;;;;5031997;28;20226;-66
2022/11/20 02:00:19;;;;;;;14.07;12.77;;;4.00;99.90;;;;;;5033306;28;20207;-67
2022/11/20 02:02:51;;;;;;;14.40;12.97;;;4.00;99.90;;;;;;5033254;28;20179;-66
2022/11/20 02:05:26;;;;;;;13.50;12.10;;;4.00;99.90;;;;;;5033822;28;20737;-67
2022/11/20 02:07:54;;;;;;;16.10;13.70;;;4.00;99.90;;;;;;5031798;28;20207;-67
2022/11/20 02:10:20;;;;;;;12.90;11.87;;;3.90;99.90;;;;;;5032675;28;20454;-66
2022/11/20 02:15:32;;;;;;;15.53;13.40;;;4.00;99.90;;;;;;5033237;28;20252;-67
2022/11/20 02:17:57;;;;;;;15.00;13.57;;;4.00;99.90;;;;;;5033017;28;20175;-67
2022/11/20 02:20:23;;;;;;;14.27;12.07;;;4.00;99.90;;;;;;5033001;28;20186;-67
2022/11/20 02:22:57;;;;;;;14.83;11.87;;;4.00;99.90;;;;;;5032745;28;20571;-66
2022/11/20 02:25:24;;;;;;;14.77;13.27;;;4.00;99.90;;;;;;5032971;28;20237;-67
2022/11/20 02:27:50;;;;;;;14.63;12.37;;;4.00;99.90;;;;;;5032681;28;20203;-66
2022/11/20 02:30:16;;;;;;;13.83;12.00;;;4.10;99.90;;;;;;5031182;28;20262;-66
2022/11/20 02:32:42;;;;;;;13.37;11.30;;;4.10;99.90;;;;;;5031412;28;20322;-66
2022/11/20 02:35:20;;;;;;;11.83;10.73;;;4.10;99.90;;;;;;5032533;28;20759;-67
2022/11/20 02:37:49;;;;;;;11.63;10.53;;;4.10;99.90;;;;;;5032805;28;20179;-67
2022/11/20 02:40:15;;;;;;;12.80;11.70;;;4.10;99.90;;;;;;5032355;28;20206;-67
2022/11/20 02:42:40;;;;;;;16.13;11.80;;;4.10;99.90;;;;;;5032428;28;20665;-68
2022/11/20 02:45:06;;;;;;;13.17;12.07;;;4.10;99.90;;;;;;5032534;28;20545;-67
2022/11/20 02:47:32;;;;;;;14.87;11.77;;;4.10;99.90;;;;;;5032204;28;20195;-67
2022/11/20 02:49:58;;;;;;;11.33;10.17;;;4.10;99.90;;;;;;5032143;28;20183;-69
2022/11/20 02:52:24;;;;;;;12.80;10.33;;;4.10;99.90;;;;;;5032486;28;20170;-67
2022/11/20 02:54:50;;;;;;;13.90;12.47;;;4.10;99.90;;;;;;5031983;28;20265;-67
2022/11/20 02:57:16;;;;;;;14.33;12.57;;;4.10;99.90;;;;;;5032439;28;20629;-67
2022/11/20 02:59:41;;;;;;;13.43;12.03;;;4.10;99.90;;;;;;5030321;28;20191;-68
2022/11/20 03:02:07;;;;;;;13.90;12.50;;;4.10;99.90;;;;;;5030862;28;20191;-67
2022/11/20 03:04:32;;;;;;;14.50;11.20;;;4.10;99.90;;;;;;5031980;28;20238;-67
2022/11/20 03:06:58;;;;;;;13.80;12.50;;;4.10;99.90;;;;;;5031419;28;20256;-67
2022/11/20 03:09:23;;;;;;;13.00;11.77;;;4.10;99.90;;;;;;5031953;28;20250;-67
2022/11/20 03:11:49;;;;;;;13.13;11.83;;;4.00;99.90;;;;;;5030859;28;20278;-68
2022/11/20 03:14:15;;;;;;;14.30;12.93;;;4.10;99.90;;;;;;5030530;28;20555;-67
2022/11/20 03:16:40;;;;;;;13.23;11.83;;;4.00;99.90;;;;;;5031907;28;20269;-67
2022/11/20 03:19:06;;;;;;;15.47;12.13;;;4.00;99.90;;;;;;5031430;28;20181;-68
2022/11/20 03:21:35;;;;;;;12.90;11.60;;;4.00;99.90;;;;;;5030500;28;20175;-68
2022/11/20 03:24:02;;;;;;;11.90;10.67;;;4.10;99.90;;;;;;5030425;28;20237;-67
2022/11/20 03:26:28;;;;;;;13.00;11.67;;;4.10;99.90;;;;;;5032089;28;20199;-67
2022/11/20 03:28:56;;;;;;;12.90;10.43;;;4.10;99.90;;;;;;5030288;28;20187;-67
2022/11/20 03:31:28;;;;;;;11.97;10.87;;;4.10;99.90;;;;;;5031633;28;20164;-68
2022/11/20 03:33:55;;;;;;;16.47;10.67;;;4.10;99.90;;;;;;5031495;28;20191;-68
2022/11/20 03:36:20;;;;;;;11.33;10.10;;;4.10;99.90;;;;;;5030338;28;20202;-67
2022/11/20 03:38:47;;;;;;;14.40;12.77;;;4.10;99.90;;;;;;5030257;28;20172;-68
2022/11/20 03:41:19;;;;;;;13.33;12.00;;;4.10;99.90;;;;;;5030268;28;20172;-67
2022/11/20 03:43:53;;;;;;;11.63;10.63;;;4.10;99.90;;;;;;5031748;28;20172;-67
2022/11/20 03:46:19;;;;;;;11.97;10.70;;;4.10;99.90;;;;;;5030273;28;20201;-68
2022/11/20 03:48:45;;;;;;;18.40;11.60;;;4.10;99.90;;;;;;5031660;28;20305;-67
2022/11/20 03:51:14;;;;;;;13.27;11.87;;;4.00;99.90;;;;;;5031396;28;20217;-67
2022/11/20 03:53:41;;;;;;;13.80;12.57;;;3.90;99.90;;;;;;5031257;28;20175;-67
2022/11/20 03:56:07;;;;;;;14.27;12.97;;;3.80;99.90;;;;;;5031103;28;20195;-68
2022/11/20 03:58:36;;;;;;;16.10;12.93;;;3.70;99.90;;;;;;5031581;28;20202;-67
2022/11/20 04:01:24;;;;;;;14.70;13.37;;;3.60;99.90;;;;;;5028583;28;20237;-67
2022/11/20 04:03:51;;;;;;;14.93;13.53;;;3.50;99.90;;;;;;5029647;28;20266;-66
2022/11/20 04:06:28;;;;;;;15.70;14.23;;;3.40;99.90;;;;;;5030012;28;20211;-66
2022/11/20 04:08:55;;;;;;;13.87;12.67;;;3.30;99.90;;;;;;5031034;28;20195;-67
2022/11/20 04:11:23;;;;;;;14.43;12.77;;;3.20;99.90;;;;;;5031361;28;20174;-68
2022/11/20 04:13:51;;;;;;;12.80;11.73;;;3.10;99.90;;;;;;5029926;28;20183;-67
2022/11/20 04:16:18;;;;;;;12.80;11.90;;;3.00;99.90;;;;;;5031286;28;20207;-68
2022/11/20 04:18:44;;;;;;;12.60;11.23;;;2.90;99.90;;;;;;5031609;28;20649;-67
2022/11/20 04:21:10;;;;;;;14.13;12.57;;;2.90;99.90;;;;;;5030938;28;20180;-68
2022/11/20 04:23:36;;;;;;;17.90;11.60;;;3.00;99.90;;;;;;5030078;28;20175;-67
2022/11/20 04:26:10;;;;;;;12.83;11.80;;;3.00;99.90;;;;;;5030954;28;20605;-67
2022/11/20 04:28:36;;;;;;;13.77;12.33;;;3.10;99.90;;;;;;5030499;28;20676;-67
2022/11/20 04:31:07;;;;;;;16.23;12.40;;;3.20;99.90;;;;;;5030781;28;20246;-67
2022/11/20 04:33:34;;;;;;;15.23;11.23;;;3.20;99.90;;;;;;5034956;28;20172;-67
2022/11/20 04:36:04;;;;;;;12.87;11.57;;;3.30;99.90;;;;;;5033348;28;20218;-67
2022/11/20 04:38:30;;;;;;;12.27;11.17;;;3.40;99.90;;;;;;5033842;28;20172;-67
2022/11/20 04:41:00;;;;;;;13.23;11.83;;;3.40;99.90;;;;;;5034409;28;20185;-66
2022/11/20 04:43:26;;;;;;;14.93;13.50;;;3.50;99.90;;;;;;5033642;28;20179;-67
2022/11/20 04:45:54;;;;;;;13.80;12.30;;;3.60;99.90;;;;;;5033288;28;20204;-68
2022/11/20 04:48:19;;;;;;;13.43;12.03;;;3.70;99.90;;;;;;5034806;28;20211;-67
2022/11/20 04:50:45;;;;;;;15.67;13.03;;;3.70;99.90;;;;;;5034424;28;20540;-67
2022/11/20 04:53:11;;;;;;;18.23;14.77;;;3.70;99.90;;;;;;5033162;28;20620;-67
2022/11/20 04:55:36;;;;;;;15.50;13.97;;;3.80;99.90;;;;;;5034435;28;20266;-67
2022/11/20 04:58:02;;;;;;;16.40;13.23;;;3.80;99.90;;;;;;5034343;28;20632;-66
2022/11/20 05:00:27;;;;;;;19.23;14.40;;;3.90;99.90;;;;;;5034322;28;20202;-67
2022/11/20 05:02:53;;;;;;;13.93;12.43;;;4.00;99.90;;;;;;5034239;28;20601;-67
2022/11/20 05:05:19;;;;;;;15.03;13.13;;;4.00;99.90;;;;;;5034464;28;20245;-67
2022/11/20 05:07:44;;;;;;;16.63;14.20;;;3.90;99.90;;;;;;5032126;28;20207;-68
2022/11/20 05:10:10;;;;;;;15.27;13.83;;;3.90;99.90;;;;;;5034109;28;20262;-66
2022/11/20 05:12:35;;;;;;;15.23;13.43;;;3.90;99.90;;;;;;5034184;28;20159;-67
2022/11/20 05:15:01;;;;;;;15.63;14.27;;;3.90;99.90;;;;;;5034026;28;20167;-67
2022/11/20 05:17:26;;;;;;;14.53;13.33;;;3.90;99.90;;;;;;5034188;28;20175;-67
2022/11/20 05:19:52;;;;;;;15.57;14.13;;;3.80;99.90;;;;;;5032745;28;20179;-66
2022/11/20 05:22:18;;;;;;;22.23;14.07;;;3.80;99.90;;;;;;5034167;28;20313;-67
2022/11/20 05:24:43;;;;;;;15.57;13.93;;;3.80;99.90;;;;;;5034075;28;20183;-68
2022/11/20 05:27:09;;;;;;;14.17;12.80;;;3.80;99.90;;;;;;5033620;28;20598;-68
2022/11/20 05:29:34;;;;;;;18.33;13.97;;;3.80;99.90;;;;;;5032654;28;20175;-67
2022/11/20 05:32:00;;;;;;;13.30;11.67;;;3.90;99.90;;;;;;5032628;28;20256;-67
2022/11/20 05:34:25;;;;;;;12.73;10.97;;;3.90;99.90;;;;;;5032262;28;20175;-67
2022/11/20 05:36:51;;;;;;;13.30;12.17;;;4.00;99.90;;;;;;5033767;28;20192;-68
2022/11/20 05:39:17;;;;;;;14.57;12.63;;;4.00;99.90;;;;;;5033451;28;20198;-68
2022/11/20 05:41:42;;;;;;;15.60;12.10;;;4.10;99.90;;;;;;5032737;28;20175;-67
2022/11/20 05:44:10;;;;;;;12.93;11.00;;;4.10;99.90;;;;;;5033096;28;20187;-67
2022/11/20 05:46:36;;;;;;;12.47;11.17;;;4.10;99.90;;;;;;5033614;28;20238;-67
2022/11/20 05:49:02;;;;;;;14.03;12.07;;;4.10;99.90;;;;;;5033345;28;20184;-68
2022/11/20 05:51:27;;;;;;;12.90;10.80;;;4.20;99.90;;;;;;5032252;28;20178;-67
2022/11/20 05:53:55;;;;;;;14.27;12.13;;;4.20;99.90;;;;;;5031964;28;20254;-67
2022/11/20 05:56:22;;;;;;;15.60;12.33;;;4.20;99.90;;;;;;5032124;28;20199;-67
2022/11/20 05:58:48;;;;;;;12.13;10.90;;;4.10;99.90;;;;;;5033388;28;20512;-67
2022/11/20 06:01:23;;;;;;;13.93;12.60;;;4.10;99.90;;;;;;5033053;28;20164;-68
2022/11/20 06:03:50;;;;;;;15.40;12.53;;;4.10;99.90;;;;;;5033077;28;20175;-68
2022/11/20 06:06:16;;;;;;;12.23;11.13;;;4.10;99.90;;;;;;5033055;28;20513;-67
2022/11/20 06:08:43;;;;;;;14.93;13.43;;;4.10;99.90;;;;;;5030360;28;20179;-67
2022/11/20 06:11:10;;;;;;;13.20;11.33;;;4.10;99.90;;;;;;5031782;28;20641;-68
2022/11/20 06:13:36;;;;;;;13.33;12.20;;;4.10;99.90;;;;;;5031833;28;20241;-67
2022/11/20 06:16:02;;;;;;;13.70;12.27;;;4.00;99.90;;;;;;5031729;28;20631;-67
2022/11/20 06:18:30;;;;;;;22.37;13.00;;;4.00;99.90;;;;;;5031609;28;20187;-67
2022/11/20 06:21:07;;;;;;;13.23;12.13;;;3.90;99.90;;;;;;5032865;28;20253;-67
2022/11/20 06:23:35;;;;;;;14.07;12.67;;;3.90;99.90;;;;;;5032263;28;20593;-67
2022/11/20 06:26:06;;;;;;;13.67;12.43;;;3.80;99.90;;;;;;5031552;28;20341;-68
2022/11/20 06:28:32;;;;;;;14.27;12.93;;;3.80;99.90;;;;;;5031530;28;20730;-68
2022/11/20 06:30:58;;;;;;;15.60;13.97;;;3.70;99.90;;;;;;5032590;28;20187;-67
2022/11/20 06:33:23;;;;;;;15.10;13.53;;;3.70;99.90;;;;;;5031378;28;20552;-68
2022/11/20 06:35:49;;;;;;;16.10;14.47;;;3.60;99.90;;;;;;5032645;28;20201;-68
2022/11/20 06:38:15;;;;;;;15.67;14.30;;;3.60;99.90;;;;;;5031362;28;20262;-68
2022/11/20 06:40:42;;;;;;;15.73;14.17;;;3.50;99.90;;;;;;5032431;28;20180;-67
2022/11/20 06:43:08;;;;;;;16.40;14.90;;;3.40;99.90;;;;;;5031056;28;20183;-68
2022/11/20 06:45:34;;;;;;;16.87;15.40;;;3.30;99.90;;;;;;5032476;28;20195;-67
2022/11/20 06:47:59;;;;;;;15.40;13.80;;;3.20;99.90;;;;;;5032209;28;20784;-67
2022/11/20 06:50:25;;;;;;;16.43;14.83;;;3.10;99.90;;;;;;5030923;28;20172;-67
2022/11/20 06:52:51;;;;;;;14.20;12.63;;;3.10;99.90;;;;;;5032714;28;20179;-67
2022/11/20 06:55:16;;;;;;;11.40;10.30;;;3.00;99.90;;;;;;5031585;28;20219;-67
2022/11/20 06:57:42;;;;;;;14.43;13.23;;;3.00;99.90;;;;;;5032310;28;20680;-67
2022/11/20 07:00:08;;;;;;;13.73;12.47;;;3.00;99.90;;;;;;5030754;28;20598;-68
2022/11/20 07:02:33;;;;;;;14.07;12.77;;;2.90;99.90;;;;;;5031935;28;20237;-68
2022/11/20 07:04:59;;;;;;;17.23;12.47;;;3.00;99.90;;;;;;5030669;28;20187;-67
2022/11/20 07:07:24;;;;;;;13.70;12.30;;;3.00;99.90;;;;;;5030992;28;20199;-67
2022/11/20 07:09:50;;;;;;;14.33;12.13;;;3.00;99.90;;;;;;5032025;28;20645;-67
2022/11/20 07:12:16;;;;;;;15.47;14.00;;;3.00;99.90;;;;;;5032166;28;20176;-67
2022/11/20 07:14:42;;;;;;;15.43;13.73;;;3.00;99.90;;;;;;5032245;28;20186;-68
2022/11/20 07:17:07;;;;;;;16.27;14.10;;;3.00;99.90;;;;;;5038438;23;20228;-65
2022/11/20 07:19:33;;;;;;;17.67;14.90;;;3.10;99.90;;;;;;5024502;28;20704;-65
2022/11/20 07:21:59;;;;;;;16.17;14.53;;;3.10;99.90;;;;;;5014076;28;20631;-66
2022/11/20 07:24:24;;;;;;;18.77;17.13;;;3.20;99.90;;;;;;5012464;28;20186;-66
2022/11/20 07:26:50;;;;;;;17.80;16.10;;;3.30;99.90;;;;;;5012910;28;20266;-65
2022/11/20 07:29:16;;;;;;;18.77;16.90;;;3.40;99.90;;;;;;5012487;28;20262;-66
2022/11/20 07:31:42;;;;;;;18.33;16.43;;;3.50;99.90;;;;;;5012225;28;20510;-66
2022/11/20 07:34:08;;;;;;;17.83;15.93;;;3.60;99.90;;;;;;5010712;28;20179;-66
2022/11/20 07:36:34;;;;;;;17.03;15.63;;;3.60;99.90;;;;;;5010655;28;20262;-66
2022/11/20 07:39:00;;;;;;;16.37;14.63;;;3.70;99.90;;;;;;5010131;28;20181;-65
2022/11/20 07:41:25;;;;;;;15.50;12.20;;;3.90;99.90;;;;;;5011719;28;20555;-66
2022/11/20 07:43:51;;;;;;;14.13;12.70;;;4.00;99.90;;;;;;5010382;28;20572;-66
2022/11/20 07:46:16;;;;;;;19.10;12.83;;;4.10;99.90;;;;;;5010309;28;20204;-66
2022/11/20 07:48:42;;;;;;;19.10;14.17;;;4.20;99.90;;;;;;5011637;28;20176;-66
2022/11/20 07:51:08;;;;;;;16.97;13.93;;;4.30;99.90;;;;;;5010135;28;20184;-66
2022/11/20 07:53:33;;;;;;;15.77;12.97;;;4.40;99.90;;;;;;5010282;28;20518;-66
2022/11/20 07:56:00;;;;;;;14.70;13.20;;;4.50;99.90;;;;;;5011507;28;20188;-66
2022/11/20 07:58:28;;;;;;;19.33;14.20;;;4.60;99.90;;;;;;5011412;28;20176;-66
2022/11/20 08:00:53;;;;;;;17.63;12.70;;;4.60;99.90;;;;;;5010092;28;20271;-66
2022/11/20 08:03:19;;;;;;;14.83;12.20;;;4.60;99.90;;;;;;5011559;28;20259;-66
2022/11/20 08:05:45;;;;;;;14.60;11.73;;;4.70;99.90;;;;;;5012423;28;20219;-66
2022/11/20 08:08:10;;;;;;;13.83;11.87;;;4.80;99.90;;;;;;5013928;28;20297;-66
2022/11/20 08:10:36;;;;;;;17.40;12.90;;;4.80;99.90;;;;;;5014067;28;20183;-66
2022/11/20 08:15:52;;;;;;;15.60;12.83;;;5.60;99.90;;;;;;5015295;28;20266;-66
2022/11/20 08:18:18;;;;;;;16.67;12.73;;;4.80;99.90;;;;;;5015020;28;20183;-66
2022/11/20 08:20:44;;;;;;;16.90;12.73;;;4.90;99.90;;;;;;5014027;28;20259;-66
2022/11/20 08:23:10;;;;;;;14.30;11.73;;;4.90;99.90;;;;;;5015014;28;20641;-66
2022/11/20 08:25:37;;;;;;;19.27;12.00;;;4.90;99.90;;;;;;5013948;28;20200;-66
2022/11/20 08:28:05;;;;;;;15.30;12.33;;;4.90;99.90;;;;;;5014755;28;20210;-66
2022/11/20 08:30:31;;;;;;;16.60;12.60;;;4.90;99.90;;;;;;5013766;28;20172;-66
2022/11/20 08:33:02;;;;;;;16.30;11.83;;;5.00;99.90;;;;;;5013526;28;20231;-66
2022/11/20 08:35:28;;;;;;;22.57;13.10;;;5.00;99.90;;;;;;4995606;28;20197;-66
2022/11/20 08:37:53;;;;;;;15.50;12.30;;;5.10;99.90;;;;;;4998375;28;20180;-66
2022/11/20 08:40:19;;;;;;;17.63;13.17;;;5.10;99.90;;;;;;5014650;28;20184;-66
2022/11/20 08:42:49;;;;;;;15.20;12.63;;;5.10;99.90;;;;;;5013531;28;20654;-66
2022/11/20 08:45:15;;;;;;;16.83;13.93;;;5.30;99.90;;;;;;5014823;28;20199;-66
2022/11/20 08:47:41;;;;;;;16.03;12.70;;;5.20;99.90;;;;;;5014675;28;20200;-66
2022/11/20 08:50:08;;;;;;;17.60;13.47;;;5.30;99.90;;;;;;5014468;28;20196;-66
2022/11/20 08:52:34;;;;;;;16.33;12.20;;;5.30;99.90;;;;;;5014562;28;20184;-66
2022/11/20 08:54:59;;;;;;;16.77;11.67;;;5.40;99.90;;;;;;5013168;28;20180;-66
2022/11/20 08:57:25;;;;;;;13.83;12.40;;;5.30;99.90;;;;;;5014781;28;20257;-66
2022/11/20 08:59:50;;;;;;;15.53;11.17;;;5.40;99.90;;;;;;5014116;28;20179;-66
2022/11/20 09:02:16;;;;;;;14.63;13.20;;;5.50;99.90;;;;;;5013626;28;20733;-66
2022/11/20 09:04:42;;;;;;;16.60;13.47;;;5.50;99.90;;;;;;5014205;28;20688;-66
2022/11/20 09:07:07;;;;;;;22.00;12.77;;;5.60;99.90;;;;;;5014514;28;20210;-66
2022/11/20 09:09:33;;;;;;;16.00;12.17;;;5.60;99.90;;;;;;5014136;28;20180;-66
2022/11/20 09:11:59;;;;;;;19.97;14.03;;;5.70;99.90;;;;;;5014413;28;20175;-66
2022/11/20 09:14:29;;;;;;;17.70;12.17;;;5.70;99.90;;;;;;5014319;28;20331;-67
2022/11/20 09:16:55;;;;;;;18.10;13.77;;;5.60;99.90;;;;;;5014189;28;20204;-66
2022/11/20 09:19:21;;;;;;;17.13;13.57;;;5.60;99.90;;;;;;5013493;28;20207;-66
2022/11/20 09:21:46;;;;;;;14.80;12.37;;;5.70;99.90;;;;;;5013303;28;20504;-66
2022/11/20 09:24:12;;;;;;;17.53;11.87;;;5.70;99.90;;;;;;5014260;28;20229;-66
2022/11/20 09:26:37;;;;;;;22.90;12.47;;;5.80;99.90;;;;;;5014215;28;20244;-66
2022/11/20 09:29:03;;;;;;;17.83;13.30;;;6.00;99.90;;;;;;5012724;28;20196;-66
2022/11/20 09:31:29;;;;;;;11.73;9.80;;;6.30;99.90;;;;;;5012804;28;20699;-66
2022/11/20 09:33:54;;;;;;;16.53;12.03;;;6.50;99.90;;;;;;5012647;28;20318;-66
2022/11/20 09:36:20;;;;;;;14.80;13.27;;;6.60;99.90;;;;;;5014040;28;20534;-66
2022/11/20 09:38:46;;;;;;;15.70;11.83;;;6.70;99.90;;;;;;5014033;28;20189;-66
2022/11/20 09:41:33;;;;;;;16.57;10.77;;;6.70;82.40;;;;;;5012289;28;20184;-67
2022/11/20 09:44:25;;;;;;;12.97;10.47;;;6.70;69.30;;;;;;4994705;28;20177;-67
2022/11/20 09:47:07;;;;;;;16.90;11.33;;;6.60;79.20;;;;;;4997668;28;20697;-66
2022/11/20 09:50:02;;;;;;;16.20;12.73;;;6.60;98.40;;;;;;5012444;28;20272;-66
2022/11/20 09:52:55;;;;;;;17.20;10.87;;;6.70;86.30;;;;;;5010339;28;20176;-66
2022/11/20 09:55:21;;;;;;;15.90;11.93;;;;;;;;;;5013678;28;20175;-66
2022/11/20 09:57:51;;;;;;;13.37;10.73;;;6.60;88.00;;;;;;5013432;28;20711;-66
2022/11/20 10:00:19;;;;;;;15.43;11.70;;;6.60;99.70;;;;;;5012106;28;20188;-66
2022/11/20 10:02:48;;;;;;;14.17;11.03;;;6.60;99.90;;;;;;5013401;28;20192;-66
2022/11/20 10:05:44;;;;;;;13.03;11.27;;;6.60;99.90;;;;;;5012102;28;20208;-66
2022/11/20 10:08:25;;;;;;;16.40;13.27;;;6.50;99.90;;;;;;5012009;28;20200;-66
2022/11/20 10:10:56;;;;;;;16.63;12.30;;;6.50;99.90;;;;;;5011965;28;20176;-66
2022/11/20 10:13:33;;;;;;;14.67;11.73;;;6.60;99.90;;;;;;5013033;28;20625;-66
2022/11/20 10:16:08;;;;;;;14.80;11.23;;;6.60;99.90;;;;;;5012951;28;20394;-66
2022/11/20 10:19:10;;;;;;;18.80;12.60;;;6.60;99.90;;;;;;5011814;28;20184;-66
2022/11/20 10:21:57;;;;;;;14.93;12.10;;;6.70;99.90;;;;;;5012040;28;20242;-66
2022/11/20 10:24:43;;;;;;;19.53;13.77;;;6.70;99.90;;;;;;4992436;28;20264;-66
2022/11/20 10:27:33;;;;;;;16.23;11.23;;;6.70;99.90;;;;;;4995835;28;20203;-66
2022/11/20 10:30:14;;;;;;;13.83;12.17;;;6.70;99.90;;;;;;5010217;28;20394;-66
2022/11/20 10:33:09;;;;;;;12.53;11.20;;;6.70;99.90;;;;;;5012590;28;20176;-66
2022/11/20 10:35:42;;;;;;;12.70;10.40;;;6.70;99.90;;;;;;5011986;28;20262;-66
2022/11/20 10:38:16;;;;;;;17.60;12.97;;;6.70;99.90;;;;;;5012133;28;20295;-66
2022/11/20 10:40:46;;;;;;;14.67;12.07;;;6.80;99.90;;;;;;5012566;28;20176;-66
2022/11/20 10:43:14;;;;;;;15.10;12.50;;;6.80;99.90;;;;;;5011498;28;20227;-66
2022/11/20 10:45:48;;;;;;;13.70;12.33;;;6.80;99.90;;;;;;5012498;28;20203;-66
2022/11/20 10:48:25;;;;;;;13.83;11.37;;;6.90;99.90;;;;;;5012736;28;20204;-66
2022/11/20 10:51:12;;;;;;;21.33;13.63;;;6.90;99.90;;;;;;5012555;28;20542;-66
2022/11/20 10:53:45;;;;;;;14.23;12.23;;;6.90;99.90;;;;;;5011467;28;20239;-66
2022/11/20 10:56:22;;;;;;;15.80;11.30;;;6.80;99.90;;;;;;5010101;28;20192;-66
2022/11/20 10:59:25;;;;;;;14.83;11.30;;;6.80;99.90;;;;;;5012736;28;20171;-66
2022/11/20 11:01:51;;;;;;;15.37;12.70;;;6.70;99.90;;;;;;5012294;28;20176;-66
2022/11/20 11:04:40;;;;;;;17.53;11.90;;;6.70;99.90;;;;;;5012469;28;20275;-66
2022/11/20 11:07:33;;;;;;;17.13;11.77;;;6.70;99.90;;;;;;5011414;28;20258;-66
2022/11/20 11:09:58;;;;;;;13.97;11.93;;;6.70;99.90;;;;;;5012115;28;20164;-66
2022/11/20 11:12:26;;;;;;;15.00;12.43;;;6.70;99.90;;;;;;5012099;28;20180;-66
2022/11/20 11:14:53;;;;;;;15.07;11.33;;;6.70;99.90;;;;;;5010999;28;20591;-66
2022/11/20 11:17:31;;;;;;;13.07;11.13;;;6.60;99.90;;;;;;5008671;28;20270;-66
2022/11/20 11:20:02;;;;;;;13.17;9.90;;;6.50;99.90;;;;;;5010389;28;20188;-66
2022/11/20 11:22:31;;;;;;;13.37;10.67;;;6.50;99.90;;;;;;5010509;28;20204;-66
2022/11/20 11:24:57;;;;;;;13.17;11.47;;;6.40;99.90;;;;;;5011722;28;20715;-66
2022/11/20 11:27:22;;;;;;;17.07;11.87;;;6.50;99.90;;;;;;5010968;28;20199;-66
2022/11/20 11:29:49;;;;;;;22.77;12.80;;;6.40;99.90;;;;;;5010568;28;20172;-66
2022/11/20 11:32:19;;;;;;;12.57;10.73;;;6.30;99.90;;;;;;5010542;28;20176;-66
2022/11/20 11:34:45;;;;;;;16.93;12.03;;;6.60;99.90;;;;;;5011864;28;20227;-66
2022/11/20 11:37:19;;;;;;;15.70;10.57;;;6.20;99.90;;;;;;5011558;28;20200;-66
2022/11/20 11:39:47;;;;;;;14.37;12.13;;;6.40;99.90;;;;;;5010361;28;20203;-66
2022/11/20 11:42:18;;;;;;;17.10;12.60;;;6.40;99.90;;;;;;5010022;28;20184;-66
2022/11/20 11:45:06;;;;;;;16.30;13.33;;;6.40;99.90;;;;;;5010736;28;20180;-66
2022/11/20 11:47:46;;;;;;;19.47;14.00;;;6.40;99.90;;;;;;5010581;28;20286;-66
2022/11/20 11:50:11;;;;;;;13.87;11.20;;;6.40;99.90;;;;;;5012789;28;20187;-66
2022/11/20 11:53:01;;;;;;;18.80;12.27;;;6.40;99.90;;;;;;5012398;28;20674;-66
2022/11/20 11:55:42;;;;;;;14.70;12.30;;;6.50;99.90;;;;;;5012072;28;20739;-66
2022/11/20 11:58:31;;;;;;;15.40;11.97;;;6.40;99.90;;;;;;5010341;28;20740;-66
2022/11/20 12:01:24;;;;;;;20.47;12.30;;;6.40;99.90;;;;;;5011399;28;20191;-66
2022/11/20 12:04:14;;;;;;;14.60;12.03;;;6.40;99.90;;;;;;5005456;28;20275;-66
2022/11/20 12:06:45;;;;;;;21.40;11.40;;;6.30;99.90;;;;;;5010497;28;20196;-66
2022/11/20 12:09:12;;;;;;;14.20;11.23;;;6.30;99.90;;;;;;5011465;28;20168;-66
2022/11/20 12:11:43;;;;;;;17.43;12.50;;;6.30;99.90;;;;;;5011600;28;20657;-66
2022/11/20 12:14:36;;;;;;;16.63;12.57;;;6.30;99.90;;;;;;5010466;28;20259;-66
2022/11/20 12:17:02;;;;;;;15.80;12.07;;;6.30;99.90;;;;;;5011335;28;20215;-66
2022/11/20 12:19:33;;;;;;;19.80;13.30;;;6.40;99.90;;;;;;5011577;28;20317;-66
2022/11/20 12:22:28;;;;;;;16.60;11.33;;;6.30;99.90;;;;;;5011299;28;20180;-66
2022/11/20 12:25:31;;;;;;;17.03;12.73;;;6.30;99.90;;;;;;5002820;28;20673;-66
2022/11/20 12:28:33;;;;;;;11.57;10.00;;;6.30;99.90;;;;;;5009405;28;20222;-66
2022/11/20 12:31:33;;;;;;;20.53;12.40;;;6.30;99.90;;;;;;5011238;28;20183;-66
2022/11/20 12:34:36;;;;;;;16.23;11.77;;;6.30;99.90;;;;;;4996505;28;20168;-67
2022/11/20 12:37:23;;;;;;;18.97;14.23;;;6.30;99.90;;;;;;4989135;28;20207;-66
2022/11/20 12:39:50;;;;;;;14.43;11.47;;;6.30;99.90;;;;;;5008084;28;20195;-66
2022/11/20 12:45:33;;;;;;;16.47;11.50;;;6.40;99.90;;;;;;5011337;28;20702;-66
2022/11/20 12:48:29;;;;;;;16.97;11.53;;;6.50;99.90;;;;;;5010985;28;20204;-66
2022/11/20 12:51:12;;;;;;;16.77;13.57;;;6.60;99.90;;;;;;5009921;28;20176;-66
2022/11/20 12:53:43;;;;;;;14.90;12.80;;;6.70;99.90;;;;;;5013257;28;20581;-66
2022/11/20 12:56:24;;;;;;;16.90;13.60;;;6.70;99.90;;;;;;5013486;28;20215;-66
2022/11/20 12:59:06;;;;;;;18.30;12.30;;;6.80;99.90;;;;;;5014742;28;20234;-67
2022/11/20 13:01:47;;;;;;;14.17;12.80;;;6.90;99.90;;;;;;5014750;28;20287;-66
2022/11/20 13:04:42;;;;;;;25.97;13.83;;;7.00;99.90;;;;;;5013242;28;20737;-66